sensor_id;sensor_type;location;lat;lon;timestamp;P1;durP1;ratioP1;P2;durP2;ratioP2
65289;SDS011;51893;59.754;10.110;2023-11-21T00:00:10;4.30;;;3.40;;
65289;SDS011;51893;59.754;10.110;2023-11-21T00:03:01;3.90;;;3.30;;
65289;SDS011;51893;59.754;10.110;2023-11-21T00:05:30;6.90;;;3.50;;
65289;SDS011;51893;59.754;10.110;2023-11-21T00:07:58;4.40;;;3.30;;
65289;SDS011;51893;59.754;10.110;2023-11-21T00:10:25;3.50;;;3.20;;
65289;SDS011;51893;59.754;10.110;2023-11-21T00:12:54;7.10;;;3.70;;
65289;SDS011;51893;59.754;10.110;2023-11-21T00:15:23;4.30;;;3.90;;
65289;SDS011;51893;59.754;10.110;2023-11-21T00:17:51;4.30;;;3.30;;
65289;SDS011;51893;59.754;10.110;2023-11-21T00:20:20;4.60;;;3.40;;
65289;SDS011;51893;59.754;10.110;2023-11-21T00:22:48;3.70;;;2.90;;
65289;SDS011;51893;59.754;10.110;2023-11-21T00:25:16;6.40;;;4.50;;
65289;SDS011;51893;59.754;10.110;2023-11-21T00:27:45;4.40;;;3.70;;
65289;SDS011;51893;59.754;10.110;2023-11-21T00:30:13;4.00;;;3.30;;
65289;SDS011;51893;59.754;10.110;2023-11-21T00:32:46;5.20;;;3.50;;
65289;SDS011;51893;59.754;10.110;2023-11-21T00:35:14;6.20;;;4.00;;
65289;SDS011;51893;59.754;10.110;2023-11-21T00:37:43;6.10;;;3.50;;
65289;SDS011;51893;59.754;10.110;2023-11-21T00:40:12;5.50;;;3.50;;
65289;SDS011;51893;59.754;10.110;2023-11-21T00:42:42;4.90;;;3.90;;
65289;SDS011;51893;59.754;10.110;2023-11-21T00:45:09;5.60;;;3.90;;
65289;SDS011;51893;59.754;10.110;2023-11-21T00:47:40;6.60;;;4.10;;
65289;SDS011;51893;59.754;10.110;2023-11-21T00:50:09;6.10;;;4.00;;
65289;SDS011;51893;59.754;10.110;2023-11-21T00:52:37;5.10;;;3.30;;
65289;SDS011;51893;59.754;10.110;2023-11-21T00:55:09;6.20;;;3.80;;
65289;SDS011;51893;59.754;10.110;2023-11-21T00:57:40;3.90;;;3.20;;
65289;SDS011;51893;59.754;10.110;2023-11-21T01:00:10;3.90;;;3.30;;
65289;SDS011;51893;59.754;10.110;2023-11-21T01:02:45;5.50;;;3.90;;
65289;SDS011;51893;59.754;10.110;2023-11-21T01:05:15;7.70;;;4.10;;
65289;SDS011;51893;59.754;10.110;2023-11-21T01:07:43;4.90;;;3.40;;
65289;SDS011;51893;59.754;10.110;2023-11-21T01:10:11;5.90;;;3.80;;
65289;SDS011;51893;59.754;10.110;2023-11-21T01:12:39;5.30;;;3.70;;
65289;SDS011;51893;59.754;10.110;2023-11-21T01:15:08;5.60;;;3.50;;
65289;SDS011;51893;59.754;10.110;2023-11-21T01:17:36;4.30;;;3.30;;
65289;SDS011;51893;59.754;10.110;2023-11-21T01:20:08;3.80;;;3.30;;
65289;SDS011;51893;59.754;10.110;2023-11-21T01:22:42;5.20;;;3.40;;
65289;SDS011;51893;59.754;10.110;2023-11-21T01:25:13;5.30;;;3.60;;
65289;SDS011;51893;59.754;10.110;2023-11-21T01:27:43;6.10;;;3.60;;
65289;SDS011;51893;59.754;10.110;2023-11-21T01:30:11;5.60;;;3.50;;
65289;SDS011;51893;59.754;10.110;2023-11-21T01:32:39;4.30;;;3.40;;
65289;SDS011;51893;59.754;10.110;2023-11-21T01:35:08;4.50;;;3.10;;
65289;SDS011;51893;59.754;10.110;2023-11-21T01:37:38;4.50;;;3.10;;
65289;SDS011;51893;59.754;10.110;2023-11-21T01:40:08;4.90;;;3.50;;
65289;SDS011;51893;59.754;10.110;2023-11-21T01:42:43;5.40;;;3.80;;
65289;SDS011;51893;59.754;10.110;2023-11-21T01:45:14;5.30;;;3.60;;
65289;SDS011;51893;59.754;10.110;2023-11-21T01:47:44;4.00;;;3.10;;
65289;SDS011;51893;59.754;10.110;2023-11-21T01:50:21;4.50;;;3.30;;
65289;SDS011;51893;59.754;10.110;2023-11-21T01:52:50;4.90;;;3.50;;
65289;SDS011;51893;59.754;10.110;2023-11-21T01:55:20;5.20;;;2.90;;
65289;SDS011;51893;59.754;10.110;2023-11-21T01:57:56;3.70;;;3.00;;
65289;SDS011;51893;59.754;10.110;2023-11-21T02:00:26;4.80;;;2.90;;
65289;SDS011;51893;59.754;10.110;2023-11-21T02:02:59;3.20;;;2.60;;
65289;SDS011;51893;59.754;10.110;2023-11-21T02:05:29;3.00;;;2.60;;
65289;SDS011;51893;59.754;10.110;2023-11-21T02:07:57;3.00;;;2.70;;
65289;SDS011;51893;59.754;10.110;2023-11-21T02:10:26;3.40;;;2.40;;
65289;SDS011;51893;59.754;10.110;2023-11-21T02:12:55;4.10;;;2.70;;
65289;SDS011;51893;59.754;10.110;2023-11-21T02:15:24;3.60;;;3.00;;
65289;SDS011;51893;59.754;10.110;2023-11-21T02:17:58;4.40;;;2.80;;
65289;SDS011;51893;59.754;10.110;2023-11-21T02:20:27;3.10;;;2.60;;
65289;SDS011;51893;59.754;10.110;2023-11-21T02:22:58;4.50;;;2.60;;
65289;SDS011;51893;59.754;10.110;2023-11-21T02:25:30;2.80;;;2.30;;
65289;SDS011;51893;59.754;10.110;2023-11-21T02:28:02;2.40;;;2.20;;
65289;SDS011;51893;59.754;10.110;2023-11-21T02:30:31;3.90;;;2.40;;
65289;SDS011;51893;59.754;10.110;2023-11-21T02:33:02;4.20;;;2.40;;
65289;SDS011;51893;59.754;10.110;2023-11-21T02:35:30;3.20;;;2.40;;
65289;SDS011;51893;59.754;10.110;2023-11-21T02:38:00;5.40;;;2.70;;
65289;SDS011;51893;59.754;10.110;2023-11-21T02:40:29;3.50;;;2.50;;
65289;SDS011;51893;59.754;10.110;2023-11-21T02:42:57;2.60;;;2.40;;
65289;SDS011;51893;59.754;10.110;2023-11-21T02:45:27;3.00;;;2.20;;
65289;SDS011;51893;59.754;10.110;2023-11-21T02:47:55;3.60;;;2.30;;
65289;SDS011;51893;59.754;10.110;2023-11-21T02:50:27;2.80;;;2.40;;
65289;SDS011;51893;59.754;10.110;2023-11-21T02:52:55;2.80;;;2.50;;
65289;SDS011;51893;59.754;10.110;2023-11-21T02:55:29;2.80;;;2.50;;
65289;SDS011;51893;59.754;10.110;2023-11-21T02:57:58;4.90;;;2.40;;
65289;SDS011;51893;59.754;10.110;2023-11-21T03:00:28;2.30;;;2.10;;
65289;SDS011;51893;59.754;10.110;2023-11-21T03:02:57;3.30;;;2.00;;
65289;SDS011;51893;59.754;10.110;2023-11-21T03:05:29;2.80;;;1.90;;
65289;SDS011;51893;59.754;10.110;2023-11-21T03:07:59;2.40;;;2.20;;
65289;SDS011;51893;59.754;10.110;2023-11-21T03:10:27;2.60;;;2.30;;
65289;SDS011;51893;59.754;10.110;2023-11-21T03:12:55;2.00;;;1.80;;
65289;SDS011;51893;59.754;10.110;2023-11-21T03:15:25;4.50;;;2.20;;
65289;SDS011;51893;59.754;10.110;2023-11-21T03:17:53;2.40;;;2.20;;
65289;SDS011;51893;59.754;10.110;2023-11-21T03:20:21;2.80;;;2.10;;
65289;SDS011;51893;59.754;10.110;2023-11-21T03:22:49;3.40;;;3.00;;
65289;SDS011;51893;59.754;10.110;2023-11-21T03:25:17;3.10;;;2.80;;
65289;SDS011;51893;59.754;10.110;2023-11-21T03:27:45;5.30;;;2.90;;
65289;SDS011;51893;59.754;10.110;2023-11-21T03:30:14;3.00;;;2.50;;
65289;SDS011;51893;59.754;10.110;2023-11-21T03:32:43;3.30;;;2.30;;
65289;SDS011;51893;59.754;10.110;2023-11-21T03:35:19;3.30;;;2.50;;
65289;SDS011;51893;59.754;10.110;2023-11-21T03:37:49;2.90;;;2.40;;
65289;SDS011;51893;59.754;10.110;2023-11-21T03:40:17;2.20;;;2.00;;
65289;SDS011;51893;59.754;10.110;2023-11-21T03:42:45;3.10;;;2.30;;
65289;SDS011;51893;59.754;10.110;2023-11-21T03:45:13;3.40;;;2.30;;
65289;SDS011;51893;59.754;10.110;2023-11-21T03:47:42;2.20;;;1.90;;
65289;SDS011;51893;59.754;10.110;2023-11-21T03:50:10;2.60;;;2.40;;
65289;SDS011;51893;59.754;10.110;2023-11-21T03:52:38;3.80;;;2.40;;
65289;SDS011;51893;59.754;10.110;2023-11-21T03:55:08;3.80;;;2.60;;
65289;SDS011;51893;59.754;10.110;2023-11-21T03:57:36;2.90;;;2.30;;
65289;SDS011;51893;59.754;10.110;2023-11-21T04:00:05;4.00;;;2.60;;
65289;SDS011;51893;59.754;10.110;2023-11-21T04:02:36;3.50;;;2.60;;
65289;SDS011;51893;59.754;10.110;2023-11-21T04:05:07;3.70;;;2.70;;
65289;SDS011;51893;59.754;10.110;2023-11-21T04:07:35;2.60;;;2.20;;
65289;SDS011;51893;59.754;10.110;2023-11-21T04:10:07;4.50;;;2.60;;
65289;SDS011;51893;59.754;10.110;2023-11-21T04:12:40;3.40;;;2.40;;
65289;SDS011;51893;59.754;10.110;2023-11-21T04:15:09;4.90;;;2.90;;
65289;SDS011;51893;59.754;10.110;2023-11-21T04:17:38;3.90;;;3.00;;
65289;SDS011;51893;59.754;10.110;2023-11-21T04:20:09;4.20;;;3.00;;
65289;SDS011;51893;59.754;10.110;2023-11-21T04:22:39;5.00;;;2.80;;
65289;SDS011;51893;59.754;10.110;2023-11-21T04:25:15;3.10;;;2.90;;
65289;SDS011;51893;59.754;10.110;2023-11-21T04:27:45;3.20;;;2.70;;
65289;SDS011;51893;59.754;10.110;2023-11-21T04:30:14;3.50;;;2.20;;
65289;SDS011;51893;59.754;10.110;2023-11-21T04:32:43;4.10;;;2.90;;
65289;SDS011;51893;59.754;10.110;2023-11-21T04:35:11;2.90;;;2.00;;
65289;SDS011;51893;59.754;10.110;2023-11-21T04:37:40;4.80;;;3.00;;
65289;SDS011;51893;59.754;10.110;2023-11-21T04:40:09;3.70;;;2.70;;
65289;SDS011;51893;59.754;10.110;2023-11-21T04:42:38;3.60;;;3.10;;
65289;SDS011;51893;59.754;10.110;2023-11-21T04:45:07;5.90;;;3.50;;
65289;SDS011;51893;59.754;10.110;2023-11-21T04:47:39;5.80;;;3.60;;
65289;SDS011;51893;59.754;10.110;2023-11-21T04:50:09;4.50;;;3.80;;
65289;SDS011;51893;59.754;10.110;2023-11-21T04:52:37;7.70;;;4.50;;
65289;SDS011;51893;59.754;10.110;2023-11-21T04:55:05;12.40;;;5.60;;
65289;SDS011;51893;59.754;10.110;2023-11-21T04:57:39;9.00;;;5.00;;
65289;SDS011;51893;59.754;10.110;2023-11-21T05:00:10;10.70;;;5.00;;
65289;SDS011;51893;59.754;10.110;2023-11-21T05:02:40;10.30;;;4.50;;
65289;SDS011;51893;59.754;10.110;2023-11-21T05:05:10;11.60;;;3.50;;
65289;SDS011;51893;59.754;10.110;2023-11-21T05:07:40;4.90;;;3.40;;
65289;SDS011;51893;59.754;10.110;2023-11-21T05:10:09;4.40;;;3.50;;
65289;SDS011;51893;59.754;10.110;2023-11-21T05:12:43;6.00;;;3.60;;
65289;SDS011;51893;59.754;10.110;2023-11-21T05:15:14;3.00;;;2.70;;
65289;SDS011;51893;59.754;10.110;2023-11-21T05:17:44;4.40;;;2.80;;
65289;SDS011;51893;59.754;10.110;2023-11-21T05:20:16;3.80;;;2.80;;
65289;SDS011;51893;59.754;10.110;2023-11-21T05:22:49;3.80;;;2.50;;
65289;SDS011;51893;59.754;10.110;2023-11-21T05:25:18;3.60;;;2.90;;
65289;SDS011;51893;59.754;10.110;2023-11-21T05:27:47;3.20;;;2.90;;
65289;SDS011;51893;59.754;10.110;2023-11-21T05:30:15;4.40;;;2.60;;
65289;SDS011;51893;59.754;10.110;2023-11-21T05:32:44;3.20;;;2.50;;
65289;SDS011;51893;59.754;10.110;2023-11-21T05:35:14;4.30;;;3.30;;
65289;SDS011;51893;59.754;10.110;2023-11-21T05:37:45;7.30;;;3.50;;
65289;SDS011;51893;59.754;10.110;2023-11-21T05:40:14;4.80;;;3.00;;
65289;SDS011;51893;59.754;10.110;2023-11-21T05:42:46;5.00;;;3.30;;
65289;SDS011;51893;59.754;10.110;2023-11-21T05:45:14;5.30;;;3.00;;
65289;SDS011;51893;59.754;10.110;2023-11-21T05:47:44;5.80;;;3.30;;
65289;SDS011;51893;59.754;10.110;2023-11-21T05:50:16;5.20;;;3.30;;
65289;SDS011;51893;59.754;10.110;2023-11-21T05:52:47;6.60;;;2.90;;
65289;SDS011;51893;59.754;10.110;2023-11-21T05:55:16;4.10;;;3.20;;
65289;SDS011;51893;59.754;10.110;2023-11-21T05:57:44;4.00;;;3.00;;
65289;SDS011;51893;59.754;10.110;2023-11-21T06:00:15;4.00;;;3.00;;
65289;SDS011;51893;59.754;10.110;2023-11-21T06:02:54;6.30;;;4.10;;
65289;SDS011;51893;59.754;10.110;2023-11-21T06:05:24;6.60;;;4.30;;
65289;SDS011;51893;59.754;10.110;2023-11-21T06:07:55;6.90;;;4.50;;
65289;SDS011;51893;59.754;10.110;2023-11-21T06:10:27;7.60;;;3.80;;
65289;SDS011;51893;59.754;10.110;2023-11-21T06:12:57;4.20;;;3.30;;
65289;SDS011;51893;59.754;10.110;2023-11-21T06:15:30;3.60;;;2.90;;
65289;SDS011;51893;59.754;10.110;2023-11-21T06:18:01;4.80;;;2.90;;
65289;SDS011;51893;59.754;10.110;2023-11-21T06:20:30;4.40;;;2.90;;
65289;SDS011;51893;59.754;10.110;2023-11-21T06:22:58;3.70;;;2.90;;
65289;SDS011;51893;59.754;10.110;2023-11-21T06:25:28;5.00;;;2.80;;
65289;SDS011;51893;59.754;10.110;2023-11-21T06:27:56;6.30;;;3.10;;
65289;SDS011;51893;59.754;10.110;2023-11-21T06:30:26;17.00;;;7.40;;
65289;SDS011;51893;59.754;10.110;2023-11-21T06:32:54;18.80;;;7.30;;
65289;SDS011;51893;59.754;10.110;2023-11-21T06:35:23;11.10;;;5.80;;
65289;SDS011;51893;59.754;10.110;2023-11-21T06:37:52;13.70;;;5.00;;
65289;SDS011;51893;59.754;10.110;2023-11-21T06:40:20;6.60;;;4.60;;
65289;SDS011;51893;59.754;10.110;2023-11-21T06:42:49;9.60;;;4.60;;
65289;SDS011;51893;59.754;10.110;2023-11-21T06:45:19;8.50;;;4.60;;
65289;SDS011;51893;59.754;10.110;2023-11-21T06:47:50;8.90;;;4.80;;
65289;SDS011;51893;59.754;10.110;2023-11-21T06:50:19;6.80;;;3.90;;
65289;SDS011;51893;59.754;10.110;2023-11-21T06:52:55;5.90;;;3.60;;
65289;SDS011;51893;59.754;10.110;2023-11-21T06:55:23;4.80;;;3.50;;
65289;SDS011;51893;59.754;10.110;2023-11-21T06:57:51;4.00;;;2.80;;
65289;SDS011;51893;59.754;10.110;2023-11-21T07:00:20;8.20;;;4.20;;
65289;SDS011;51893;59.754;10.110;2023-11-21T07:02:49;13.60;;;5.60;;
65289;SDS011;51893;59.754;10.110;2023-11-21T07:05:18;13.00;;;5.00;;
65289;SDS011;51893;59.754;10.110;2023-11-21T07:07:49;10.20;;;4.10;;
65289;SDS011;51893;59.754;10.110;2023-11-21T07:10:18;8.20;;;4.20;;
65289;SDS011;51893;59.754;10.110;2023-11-21T07:12:46;6.30;;;3.40;;
65289;SDS011;51893;59.754;10.110;2023-11-21T07:15:16;6.20;;;3.10;;
65289;SDS011;51893;59.754;10.110;2023-11-21T07:17:43;6.00;;;3.50;;
65289;SDS011;51893;59.754;10.110;2023-11-21T07:20:12;5.90;;;3.50;;
65289;SDS011;51893;59.754;10.110;2023-11-21T07:22:45;6.10;;;3.60;;
65289;SDS011;51893;59.754;10.110;2023-11-21T07:25:13;7.50;;;2.90;;
65289;SDS011;51893;59.754;10.110;2023-11-21T07:27:41;3.90;;;3.00;;
65289;SDS011;51893;59.754;10.110;2023-11-21T07:30:10;6.10;;;3.80;;
65289;SDS011;51893;59.754;10.110;2023-11-21T07:32:40;5.30;;;2.80;;
65289;SDS011;51893;59.754;10.110;2023-11-21T07:35:09;3.90;;;3.00;;
65289;SDS011;51893;59.754;10.110;2023-11-21T07:37:37;5.20;;;3.20;;
65289;SDS011;51893;59.754;10.110;2023-11-21T07:40:08;5.90;;;4.20;;
65289;SDS011;51893;59.754;10.110;2023-11-21T07:42:38;4.80;;;2.80;;
65289;SDS011;51893;59.754;10.110;2023-11-21T07:45:07;6.40;;;2.60;;
65289;SDS011;51893;59.754;10.110;2023-11-21T07:47:36;3.30;;;2.70;;
65289;SDS011;51893;59.754;10.110;2023-11-21T07:50:08;5.90;;;3.90;;
65289;SDS011;51893;59.754;10.110;2023-11-21T07:52:38;16.80;;;7.30;;
65289;SDS011;51893;59.754;10.110;2023-11-21T07:55:08;11.70;;;4.80;;
65289;SDS011;51893;59.754;10.110;2023-11-21T07:57:37;6.50;;;3.60;;
65289;SDS011;51893;59.754;10.110;2023-11-21T08:00:06;8.70;;;4.20;;
65289;SDS011;51893;59.754;10.110;2023-11-21T08:02:41;8.30;;;4.60;;
65289;SDS011;51893;59.754;10.110;2023-11-21T08:05:10;15.20;;;7.10;;
65289;SDS011;51893;59.754;10.110;2023-11-21T08:07:51;34.00;;;14.10;;
65289;SDS011;51893;59.754;10.110;2023-11-21T08:10:20;26.40;;;13.40;;
65289;SDS011;51893;59.754;10.110;2023-11-21T08:12:49;11.70;;;6.30;;
65289;SDS011;51893;59.754;10.110;2023-11-21T08:15:18;7.10;;;3.20;;
65289;SDS011;51893;59.754;10.110;2023-11-21T08:17:47;3.40;;;3.10;;
65289;SDS011;51893;59.754;10.110;2023-11-21T08:20:16;3.40;;;3.00;;
65289;SDS011;51893;59.754;10.110;2023-11-21T08:22:45;3.90;;;3.10;;
65289;SDS011;51893;59.754;10.110;2023-11-21T08:25:15;11.30;;;5.10;;
65289;SDS011;51893;59.754;10.110;2023-11-21T08:27:48;18.40;;;8.40;;
65289;SDS011;51893;59.754;10.110;2023-11-21T08:30:17;12.80;;;5.50;;
65289;SDS011;51893;59.754;10.110;2023-11-21T08:32:47;10.30;;;5.50;;
65289;SDS011;51893;59.754;10.110;2023-11-21T08:35:15;7.40;;;5.50;;
65289;SDS011;51893;59.754;10.110;2023-11-21T08:37:44;7.20;;;4.90;;
65289;SDS011;51893;59.754;10.110;2023-11-21T08:40:13;5.10;;;3.50;;
65289;SDS011;51893;59.754;10.110;2023-11-21T08:42:45;8.00;;;4.30;;
65289;SDS011;51893;59.754;10.110;2023-11-21T08:45:14;5.00;;;4.10;;
65289;SDS011;51893;59.754;10.110;2023-11-21T08:47:45;6.40;;;4.40;;
65289;SDS011;51893;59.754;10.110;2023-11-21T08:50:17;5.20;;;3.90;;
65289;SDS011;51893;59.754;10.110;2023-11-21T08:52:47;9.40;;;5.20;;
65289;SDS011;51893;59.754;10.110;2023-11-21T08:55:16;12.10;;;7.30;;
65289;SDS011;51893;59.754;10.110;2023-11-21T08:57:45;12.60;;;7.90;;
65289;SDS011;51893;59.754;10.110;2023-11-21T09:00:17;9.90;;;5.70;;
65289;SDS011;51893;59.754;10.110;2023-11-21T09:02:47;9.20;;;4.70;;
65289;SDS011;51893;59.754;10.110;2023-11-21T09:05:17;8.30;;;4.90;;
65289;SDS011;51893;59.754;10.110;2023-11-21T09:07:46;9.80;;;5.30;;
65289;SDS011;51893;59.754;10.110;2023-11-21T09:10:14;5.00;;;3.70;;
65289;SDS011;51893;59.754;10.110;2023-11-21T09:12:42;7.70;;;4.70;;
65289;SDS011;51893;59.754;10.110;2023-11-21T09:15:14;11.50;;;5.20;;
65289;SDS011;51893;59.754;10.110;2023-11-21T09:17:42;9.90;;;4.40;;
65289;SDS011;51893;59.754;10.110;2023-11-21T09:20:12;6.50;;;4.70;;
65289;SDS011;51893;59.754;10.110;2023-11-21T09:22:43;7.10;;;5.00;;
65289;SDS011;51893;59.754;10.110;2023-11-21T09:25:13;6.60;;;4.50;;
65289;SDS011;51893;59.754;10.110;2023-11-21T09:27:41;9.40;;;4.20;;
65289;SDS011;51893;59.754;10.110;2023-11-21T09:30:13;4.20;;;3.40;;
65289;SDS011;51893;59.754;10.110;2023-11-21T09:32:44;4.30;;;3.30;;
65289;SDS011;51893;59.754;10.110;2023-11-21T09:35:15;4.80;;;3.70;;
65289;SDS011;51893;59.754;10.110;2023-11-21T09:37:48;5.70;;;4.30;;
65289;SDS011;51893;59.754;10.110;2023-11-21T09:40:21;5.80;;;4.10;;
65289;SDS011;51893;59.754;10.110;2023-11-21T09:42:55;5.90;;;4.10;;
65289;SDS011;51893;59.754;10.110;2023-11-21T09:45:29;7.10;;;4.50;;
65289;SDS011;51893;59.754;10.110;2023-11-21T09:50:35;7.30;;;4.50;;
65289;SDS011;51893;59.754;10.110;2023-11-21T09:53:19;7.30;;;5.20;;
65289;SDS011;51893;59.754;10.110;2023-11-21T09:55:55;6.80;;;5.00;;
65289;SDS011;51893;59.754;10.110;2023-11-21T09:58:27;8.60;;;5.00;;
65289;SDS011;51893;59.754;10.110;2023-11-21T10:00:57;8.90;;;5.30;;
65289;SDS011;51893;59.754;10.110;2023-11-21T10:03:30;8.00;;;5.70;;
65289;SDS011;51893;59.754;10.110;2023-11-21T10:06:01;8.70;;;5.30;;
65289;SDS011;51893;59.754;10.110;2023-11-21T10:08:33;10.50;;;5.70;;
65289;SDS011;51893;59.754;10.110;2023-11-21T10:11:17;10.70;;;6.10;;
65289;SDS011;51893;59.754;10.110;2023-11-21T10:13:49;8.40;;;5.60;;
65289;SDS011;51893;59.754;10.110;2023-11-21T10:16:25;9.80;;;5.80;;
65289;SDS011;51893;59.754;10.110;2023-11-21T10:18:55;6.80;;;5.30;;
65289;SDS011;51893;59.754;10.110;2023-11-21T10:21:40;9.30;;;6.00;;
65289;SDS011;51893;59.754;10.110;2023-11-21T10:24:08;8.90;;;4.90;;
65289;SDS011;51893;59.754;10.110;2023-11-21T10:26:36;7.90;;;5.00;;
65289;SDS011;51893;59.754;10.110;2023-11-21T10:29:22;9.20;;;5.20;;
65289;SDS011;51893;59.754;10.110;2023-11-21T10:31:52;8.50;;;5.20;;
65289;SDS011;51893;59.754;10.110;2023-11-21T10:34:24;9.00;;;5.50;;
65289;SDS011;51893;59.754;10.110;2023-11-21T10:36:52;7.20;;;5.40;;
65289;SDS011;51893;59.754;10.110;2023-11-21T10:39:20;11.50;;;6.50;;
65289;SDS011;51893;59.754;10.110;2023-11-21T10:41:52;7.60;;;5.40;;
65289;SDS011;51893;59.754;10.110;2023-11-21T10:44:20;9.20;;;5.70;;
65289;SDS011;51893;59.754;10.110;2023-11-21T10:46:50;9.30;;;5.90;;
65289;SDS011;51893;59.754;10.110;2023-11-21T10:49:27;9.30;;;5.80;;
65289;SDS011;51893;59.754;10.110;2023-11-21T10:51:57;9.50;;;5.50;;
65289;SDS011;51893;59.754;10.110;2023-11-21T10:54:27;8.40;;;5.20;;
65289;SDS011;51893;59.754;10.110;2023-11-21T10:57:00;8.30;;;5.60;;
65289;SDS011;51893;59.754;10.110;2023-11-21T10:59:30;7.80;;;5.30;;
65289;SDS011;51893;59.754;10.110;2023-11-21T11:02:05;9.40;;;5.60;;
65289;SDS011;51893;59.754;10.110;2023-11-21T11:04:48;8.20;;;4.80;;
65289;SDS011;51893;59.754;10.110;2023-11-21T11:07:20;10.60;;;7.00;;
65289;SDS011;51893;59.754;10.110;2023-11-21T11:09:53;26.30;;;11.90;;
65289;SDS011;51893;59.754;10.110;2023-11-21T11:12:23;13.10;;;7.40;;
65289;SDS011;51893;59.754;10.110;2023-11-21T11:14:55;6.90;;;4.80;;
65289;SDS011;51893;59.754;10.110;2023-11-21T11:17:25;11.60;;;6.40;;
65289;SDS011;51893;59.754;10.110;2023-11-21T11:19:55;6.60;;;4.50;;
65289;SDS011;51893;59.754;10.110;2023-11-21T11:28:17;19.90;;;11.30;;
65289;SDS011;51893;59.754;10.110;2023-11-21T11:31:00;13.60;;;7.00;;
65289;SDS011;51893;59.754;10.110;2023-11-21T11:33:48;12.00;;;8.30;;
65289;SDS011;51893;59.754;10.110;2023-11-21T11:36:33;8.00;;;5.00;;
65289;SDS011;51893;59.754;10.110;2023-11-21T11:39:26;8.60;;;5.20;;
65289;SDS011;51893;59.754;10.110;2023-11-21T11:42:02;6.30;;;4.90;;
65289;SDS011;51893;59.754;10.110;2023-11-21T11:47:16;10.00;;;5.60;;
65289;SDS011;51893;59.754;10.110;2023-11-21T11:49:57;14.10;;;6.50;;
65289;SDS011;51893;59.754;10.110;2023-11-21T11:52:36;13.30;;;6.50;;
65289;SDS011;51893;59.754;10.110;2023-11-21T11:55:13;14.50;;;5.80;;
65289;SDS011;51893;59.754;10.110;2023-11-21T11:57:53;9.20;;;5.60;;
65289;SDS011;51893;59.754;10.110;2023-11-21T12:02:59;7.80;;;5.30;;
65289;SDS011;51893;59.754;10.110;2023-11-21T12:08:12;3.50;;;2.90;;
65289;SDS011;51893;59.754;10.110;2023-11-21T12:10:42;7.80;;;4.60;;
65289;SDS011;51893;59.754;10.110;2023-11-21T12:13:14;16.20;;;5.00;;
65289;SDS011;51893;59.754;10.110;2023-11-21T12:15:45;8.60;;;4.70;;
65289;SDS011;51893;59.754;10.110;2023-11-21T12:18:13;10.70;;;5.10;;
65289;SDS011;51893;59.754;10.110;2023-11-21T12:20:41;11.70;;;5.80;;
65289;SDS011;51893;59.754;10.110;2023-11-21T12:23:10;5.70;;;3.90;;
65289;SDS011;51893;59.754;10.110;2023-11-21T12:25:40;11.80;;;5.50;;
65289;SDS011;51893;59.754;10.110;2023-11-21T12:28:10;6.50;;;4.40;;
65289;SDS011;51893;59.754;10.110;2023-11-21T12:30:40;7.90;;;5.60;;
65289;SDS011;51893;59.754;10.110;2023-11-21T12:33:10;9.00;;;5.90;;
65289;SDS011;51893;59.754;10.110;2023-11-21T12:35:41;10.00;;;6.40;;
65289;SDS011;51893;59.754;10.110;2023-11-21T12:38:14;12.20;;;6.80;;
65289;SDS011;51893;59.754;10.110;2023-11-21T12:40:45;8.60;;;6.20;;
65289;SDS011;51893;59.754;10.110;2023-11-21T12:43:17;10.10;;;5.80;;
65289;SDS011;51893;59.754;10.110;2023-11-21T12:45:48;14.20;;;6.20;;
65289;SDS011;51893;59.754;10.110;2023-11-21T12:48:18;13.70;;;7.00;;
65289;SDS011;51893;59.754;10.110;2023-11-21T12:50:52;12.60;;;6.80;;
65289;SDS011;51893;59.754;10.110;2023-11-21T12:53:21;8.20;;;4.70;;
65289;SDS011;51893;59.754;10.110;2023-11-21T12:55:49;7.20;;;4.70;;
65289;SDS011;51893;59.754;10.110;2023-11-21T12:58:20;7.50;;;4.00;;
65289;SDS011;51893;59.754;10.110;2023-11-21T13:00:49;7.00;;;4.90;;
65289;SDS011;51893;59.754;10.110;2023-11-21T13:03:17;7.20;;;4.00;;
65289;SDS011;51893;59.754;10.110;2023-11-21T13:05:48;5.60;;;3.70;;
65289;SDS011;51893;59.754;10.110;2023-11-21T13:08:23;6.50;;;3.90;;
65289;SDS011;51893;59.754;10.110;2023-11-21T13:10:54;9.00;;;4.30;;
65289;SDS011;51893;59.754;10.110;2023-11-21T13:13:28;7.00;;;4.40;;
65289;SDS011;51893;59.754;10.110;2023-11-21T13:16:02;10.40;;;5.20;;
65289;SDS011;51893;59.754;10.110;2023-11-21T13:18:33;6.40;;;3.90;;
65289;SDS011;51893;59.754;10.110;2023-11-21T13:21:04;10.70;;;5.70;;
65289;SDS011;51893;59.754;10.110;2023-11-21T13:23:41;13.10;;;7.30;;
65289;SDS011;51893;59.754;10.110;2023-11-21T13:26:10;11.10;;;7.10;;
65289;SDS011;51893;59.754;10.110;2023-11-21T13:28:42;6.30;;;4.60;;
65289;SDS011;51893;59.754;10.110;2023-11-21T13:31:14;11.40;;;7.40;;
65289;SDS011;51893;59.754;10.110;2023-11-21T13:33:54;12.80;;;7.00;;
65289;SDS011;51893;59.754;10.110;2023-11-21T13:36:25;14.60;;;6.60;;
65289;SDS011;51893;59.754;10.110;2023-11-21T13:38:54;13.80;;;7.00;;
65289;SDS011;51893;59.754;10.110;2023-11-21T13:41:22;14.70;;;8.00;;
65289;SDS011;51893;59.754;10.110;2023-11-21T13:43:59;12.30;;;6.20;;
65289;SDS011;51893;59.754;10.110;2023-11-21T13:46:43;10.20;;;6.50;;
65289;SDS011;51893;59.754;10.110;2023-11-21T13:49:14;15.20;;;6.50;;
65289;SDS011;51893;59.754;10.110;2023-11-21T13:51:43;12.90;;;6.40;;
65289;SDS011;51893;59.754;10.110;2023-11-21T13:54:19;11.90;;;6.90;;
65289;SDS011;51893;59.754;10.110;2023-11-21T13:56:52;12.30;;;7.10;;
65289;SDS011;51893;59.754;10.110;2023-11-21T13:59:20;17.70;;;8.40;;
65289;SDS011;51893;59.754;10.110;2023-11-21T14:01:59;13.90;;;6.50;;
65289;SDS011;51893;59.754;10.110;2023-11-21T14:04:28;11.60;;;6.40;;
65289;SDS011;51893;59.754;10.110;2023-11-21T14:07:14;16.00;;;6.60;;
65289;SDS011;51893;59.754;10.110;2023-11-21T14:09:54;13.30;;;7.60;;
65289;SDS011;51893;59.754;10.110;2023-11-21T14:12:23;28.90;;;12.00;;
65289;SDS011;51893;59.754;10.110;2023-11-21T14:14:53;31.50;;;11.40;;
65289;SDS011;51893;59.754;10.110;2023-11-21T14:17:22;20.60;;;8.10;;
65289;SDS011;51893;59.754;10.110;2023-11-21T14:19:53;18.70;;;7.70;;
65289;SDS011;51893;59.754;10.110;2023-11-21T14:22:32;14.80;;;8.60;;
65289;SDS011;51893;59.754;10.110;2023-11-21T14:25:01;12.80;;;7.20;;
65289;SDS011;51893;59.754;10.110;2023-11-21T14:27:32;14.70;;;8.10;;
65289;SDS011;51893;59.754;10.110;2023-11-21T14:30:03;13.00;;;7.50;;
65289;SDS011;51893;59.754;10.110;2023-11-21T14:32:32;18.60;;;8.70;;
65289;SDS011;51893;59.754;10.110;2023-11-21T14:35:01;18.90;;;7.50;;
65289;SDS011;51893;59.754;10.110;2023-11-21T14:37:34;14.00;;;7.00;;
65289;SDS011;51893;59.754;10.110;2023-11-21T14:40:03;12.10;;;6.10;;
65289;SDS011;51893;59.754;10.110;2023-11-21T14:42:37;14.50;;;7.10;;
65289;SDS011;51893;59.754;10.110;2023-11-21T14:45:10;15.50;;;7.30;;
65289;SDS011;51893;59.754;10.110;2023-11-21T14:47:40;15.30;;;8.00;;
65289;SDS011;51893;59.754;10.110;2023-11-21T14:50:14;16.10;;;9.10;;
65289;SDS011;51893;59.754;10.110;2023-11-21T14:53:02;13.90;;;7.80;;
65289;SDS011;51893;59.754;10.110;2023-11-21T14:55:33;10.10;;;6.30;;
65289;SDS011;51893;59.754;10.110;2023-11-21T14:58:18;16.80;;;6.60;;
65289;SDS011;51893;59.754;10.110;2023-11-21T15:00:57;14.00;;;6.30;;
65289;SDS011;51893;59.754;10.110;2023-11-21T15:03:28;9.80;;;5.30;;
65289;SDS011;51893;59.754;10.110;2023-11-21T15:06:04;18.40;;;6.00;;
65289;SDS011;51893;59.754;10.110;2023-11-21T15:08:56;11.20;;;5.00;;